Time;durP1;ratioP1;P1;durP2;ratioP2;P2;SDS_P1;SDS_P2;PMS_P1;PMS_P2;Temp;Humidity;BMP_temperature;BMP_pressure;BME280_temperature;BME280_humidity;BME280_pressure;Samples;Min_cycle;Max_cycle;Signal;HPM_P1;HPM_P2
2022/08/25 00:02:12;;;;;;;2.35;2.00;;;23.50;70.80;;;24.09;70.80;101049.81;5146530;28;20050;-78
2022/08/25 00:04:45;;;;;;;4.68;1.92;;;23.40;70.80;;;24.05;71.16;101046.31;5113524;28;20042;-78
2022/08/25 00:07:19;;;;;;;2.00;1.60;;;23.30;70.90;;;24.01;71.44;101049.94;5113289;28;20066;-79
2022/08/25 00:09:54;;;;;;;1.85;1.63;;;23.30;71.20;;;23.97;71.12;101050.88;5129416;28;20089;-79
2022/08/25 00:12:28;;;;;;;1.55;1.45;;;23.20;71.10;;;23.94;71.24;101053.59;5146203;28;20055;-80
2022/08/25 00:15:00;;;;;;;1.65;1.50;;;23.20;71.40;;;23.91;71.79;101052.75;5146377;28;20053;-79
2022/08/25 00:17:34;;;;;;;2.38;1.77;;;23.20;71.90;;;23.87;72.09;101054.63;5128890;28;20051;-79
2022/08/25 00:20:10;;;;;;;2.33;1.90;;;23.20;72.10;;;23.86;72.64;101055.50;5129145;28;20396;-79
2022/08/25 00:22:45;;;;;;;1.90;1.33;;;23.20;72.60;;;23.83;72.53;101053.78;5146583;28;20050;-79
2022/08/25 00:25:20;;;;;;;2.35;1.70;;;23.20;72.50;;;23.80;72.54;101052.97;5113652;28;20140;-79
2022/08/25 00:27:52;;;;;;;2.30;1.70;;;23.10;72.40;;;23.76;72.56;101057.44;5146370;28;20471;-79
2022/08/25 00:30:27;;;;;;;1.98;1.60;;;23.00;72.60;;;23.77;72.67;101055.66;5146207;28;20051;-78
2022/08/25 00:33:00;;;;;;;2.58;1.58;;;23.10;72.80;;;23.75;72.40;101057.47;5128455;28;20054;-80
2022/08/25 00:35:36;;;;;;;1.92;1.73;;;23.00;72.70;;;23.74;71.69;101053.03;5113439;28;20057;-79
2022/08/25 00:38:11;;;;;;;1.83;1.52;;;23.00;72.30;;;23.76;72.09;101059.22;5128671;28;20113;-80
2022/08/25 00:40:45;;;;;;;1.75;1.50;;;23.00;72.60;;;23.75;72.11;101057.47;5146234;28;20039;-80
2022/08/25 00:43:19;;;;;;;;;;;23.00;72.70;;;23.67;72.31;101062.00;5128942;28;20047;-79
2022/08/25 00:45:51;;;;;;;2.72;1.83;;;23.00;72.80;;;23.61;72.17;101057.69;5112507;28;19922;-79
2022/08/25 00:48:24;;;;;;;1.98;1.70;;;22.90;72.80;;;23.58;72.45;101054.13;5128370;28;20107;-80
2022/08/25 00:50:58;;;;;;;2.63;1.80;;;22.90;73.10;;;23.53;72.79;101054.19;5112453;28;20051;-79
2022/08/25 00:53:33;;;;;;;3.00;1.67;;;22.90;73.40;;;23.50;72.60;101049.81;5127733;28;20089;-80
2022/08/25 00:56:08;;;;;;;2.47;1.90;;;22.80;73.40;;;23.47;72.43;101052.53;5127081;28;20043;-79
2022/08/25 00:58:45;;;;;;;2.33;1.80;;;22.80;73.40;;;23.46;72.55;101052.53;5128529;28;20070;-79
2022/08/25 01:01:17;;;;;;;1.70;1.60;;;22.80;73.60;;;23.44;72.74;101055.22;5145274;28;20065;-80
2022/08/25 01:03:50;;;;;;;2.42;1.80;;;22.80;73.80;;;23.38;73.15;101051.75;5128240;28;20042;-79
2022/08/25 01:06:24;;;;;;;3.13;1.80;;;22.70;74.00;;;23.31;73.46;101053.63;5111994;28;20054;-79
2022/08/25 01:08:58;;;;;;;;;;;22.70;74.40;;;23.23;74.09;101060.81;5145791;28;20416;-79
2022/08/25 01:11:30;;;;;;;3.03;1.90;;;22.60;74.70;;;23.16;74.52;101049.38;5143809;28;19932;-79
2022/08/25 01:14:05;;;;;;;3.00;1.75;;;22.60;75.20;;;23.10;74.97;101051.25;5111777;28;20046;-79
2022/08/25 01:16:39;;;;;;;2.92;1.95;;;22.50;75.70;;;23.05;75.34;101055.75;5111894;28;20051;-79
2022/08/25 01:19:15;;;;;;;2.40;1.80;;;22.40;76.00;;;22.98;75.75;101055.81;5145088;28;20057;-80
2022/08/25 01:21:55;;;;;;;2.88;1.67;;;22.40;76.50;;;22.94;75.87;101051.41;5144967;28;20089;-79
2022/08/25 01:24:36;;;;;;;2.30;2.10;;;22.30;76.70;;;22.89;76.03;101055.06;5127589;28;20137;-79
2022/08/25 01:27:10;;;;;;;2.10;1.77;;;22.30;76.90;;;22.87;76.94;101057.72;5144786;28;20042;-79
2022/08/25 01:29:46;;;;;;;2.08;1.85;;;22.20;77.60;;;22.84;76.97;101057.72;5112033;28;20081;-80
2022/08/25 01:32:19;;;;;;;2.28;2.08;;;22.20;77.80;;;22.84;76.45;101054.19;5127496;28;20384;-79
2022/08/25 01:34:51;;;;;;;2.72;1.88;;;22.20;77.80;;;22.83;76.52;101058.63;5111478;28;20062;-79
2022/08/25 01:37:25;;;;;;;2.22;1.85;;;22.20;77.90;;;22.82;76.50;101054.22;5127518;28;20054;-79
2022/08/25 01:39:58;;;;;;;2.42;1.85;;;22.20;78.10;;;22.81;76.01;101059.53;5143395;28;20047;-79
2022/08/25 01:42:51;;;;;;;2.33;1.98;;;22.20;77.80;;;22.79;75.89;101054.22;5111366;28;20046;-78
2022/08/25 01:45:24;;;;;;;2.28;1.80;;;22.10;77.80;;;22.75;75.92;101052.50;5127491;28;20145;-80
2022/08/25 01:47:58;;;;;;;2.72;1.80;;;22.10;78.00;;;22.73;76.15;101048.97;5111493;28;20075;-79
2022/08/25 01:50:31;;;;;;;1.98;1.65;;;22.10;78.10;;;22.71;76.04;101051.66;5144722;28;20046;-78
2022/08/25 01:53:14;;;;;;;2.83;1.70;;;22.10;78.30;;;22.68;75.98;101056.13;5126843;28;20065;-79
2022/08/25 01:56:00;;;;;;;2.28;1.90;;;22.00;78.20;;;22.67;75.88;101055.25;5143321;28;20458;-79
2022/08/25 01:58:37;;;;;;;2.90;2.00;;;22.00;78.30;;;22.66;76.20;101052.59;5113309;28;20046;-79
2022/08/25 02:01:16;;;;;;;2.15;1.77;;;22.00;78.60;;;22.63;76.23;101053.53;5127209;28;20039;-79
2022/08/25 02:03:54;;;;;;;2.08;1.85;;;22.00;78.80;;;22.62;76.58;101056.19;5144207;28;20031;-80
2022/08/25 02:06:32;;;;;;;2.03;1.75;;;22.00;79.00;;;22.59;76.77;101061.53;5144151;28;20047;-79
2022/08/25 02:09:09;;;;;;;3.88;2.00;;;22.00;79.30;;;22.54;76.97;101064.25;5126734;28;20142;-79
2022/08/25 02:11:45;;;;;;;1.95;1.63;;;21.90;79.50;;;22.49;77.67;101058.09;5127119;28;20581;-79
2022/08/25 02:14:19;;;;;;;3.60;1.88;;;21.90;80.20;;;22.44;77.81;101063.47;5110942;28;20051;-79
2022/08/25 02:16:56;;;;;;;2.63;1.80;;;21.80;80.30;;;22.39;78.38;101072.38;5143864;28;20054;-79
2022/08/25 02:19:30;;;;;;;2.30;1.70;;;21.80;80.80;;;22.37;78.76;101069.72;5111979;28;20054;-79
2022/08/25 02:22:02;;;;;;;2.58;2.08;;;21.80;81.30;;;22.35;78.71;101067.97;5111258;28;20047;-79
2022/08/25 02:24:36;;;;;;;2.15;1.50;;;21.70;81.60;;;22.34;78.71;101069.75;5126762;28;20057;-79
2022/08/25 02:27:09;;;;;;;2.60;1.90;;;21.70;81.70;;;22.32;78.49;101071.53;5126374;28;20053;-79
2022/08/25 02:29:42;;;;;;;2.00;1.80;;;21.70;81.60;;;22.29;78.05;101068.91;5111262;28;20078;-80
2022/08/25 02:32:14;;;;;;;2.67;1.95;;;21.70;81.50;;;22.28;77.70;101067.13;5144079;28;20047;-79
2022/08/25 02:34:47;;;;;;;1.60;1.50;;;21.70;81.40;;;22.25;77.46;101064.53;5126940;28;20047;-79
2022/08/25 02:37:21;;;;;;;2.72;1.83;;;21.60;81.20;;;22.23;77.72;101074.25;5110839;28;20057;-80
2022/08/25 02:39:55;;;;;;;2.83;2.00;;;21.60;81.50;;;22.20;78.04;101066.34;5144316;28;20501;-80
2022/08/25 02:42:30;;;;;;;2.00;1.60;;;21.60;81.70;;;22.15;78.18;101066.38;5126544;28;20054;-79
2022/08/25 02:45:06;;;;;;;2.80;1.70;;;21.60;82.00;;;22.12;78.33;101065.53;5110775;28;20086;-79
2022/08/25 02:47:39;;;;;;;2.63;1.73;;;21.50;82.20;;;22.09;78.37;101061.09;5126402;28;20061;-79
2022/08/25 02:50:14;;;;;;;2.05;1.80;;;21.50;82.30;;;22.09;78.43;101070.84;5111405;28;20051;-79
2022/08/25 02:52:52;;;;;;;1.77;1.60;;;21.50;82.50;;;22.08;78.81;101058.44;5126526;28;20043;-79
2022/08/25 02:55:26;;;;;;;2.47;1.95;;;21.50;82.70;;;22.06;78.35;101053.16;5127375;28;20046;-80
2022/08/25 02:57:59;;;;;;;;;;;21.50;82.50;;;22.04;77.48;101051.38;5110640;28;20047;-80
2022/08/25 03:00:34;;;;;;;5.43;2.05;;;21.40;81.90;;;22.04;77.53;101051.38;5126853;28;19922;-80
2022/08/25 03:03:07;;;;;;;2.90;2.15;;;21.40;82.10;;;22.02;77.97;101058.50;5126152;28;20145;-79
2022/08/25 03:05:40;;;;;;;1.98;1.70;;;21.40;82.40;;;21.99;78.42;101048.78;5143682;28;20422;-79
2022/08/25 03:08:13;;;;;;;3.63;2.00;;;21.40;82.90;;;22.00;78.62;101049.66;5110708;28;20141;-79
2022/08/25 03:10:49;;;;;;;2.05;1.67;;;21.40;83.10;;;21.98;77.84;101040.84;5144019;28;20061;-80
2022/08/25 03:13:21;;;;;;;2.40;1.83;;;21.40;82.70;;;21.97;76.80;101033.75;5110745;28;20051;-79
2022/08/25 03:15:54;;;;;;;3.55;2.00;;;21.40;82.00;;;21.99;76.16;101034.63;5126353;28;20047;-79
2022/08/25 03:18:29;;;;;;;2.20;1.60;;;21.40;81.60;;;22.02;75.90;101026.63;5143822;28;20122;-79
2022/08/25 03:21:02;;;;;;;3.13;1.92;;;21.40;81.40;;;22.02;76.17;101022.22;5146947;28;20057;-80
2022/08/25 03:23:35;;;;;;;2.10;1.60;;;21.40;81.60;;;22.02;76.53;101021.31;5130291;28;20046;-80
2022/08/25 03:29:03;;;;;;;3.00;1.80;;;21.40;82.20;;;21.97;77.55;101025.78;5129789;28;20141;-79
2022/08/25 03:31:39;;;;;;;2.53;2.00;;;21.40;82.60;;;21.91;77.64;101022.31;5147565;28;20102;-80
2022/08/25 03:34:12;;;;;;;2.40;2.20;;;21.30;82.80;;;21.87;78.19;101023.22;5112933;28;20414;-80
2022/08/25 03:36:47;;;;;;;2.42;1.73;;;21.30;83.30;;;21.81;78.53;101015.31;5113227;28;20518;-79
2022/08/25 03:39:21;;;;;;;2.15;1.65;;;21.20;83.60;;;21.77;79.19;101021.53;5130123;28;20050;-79
2022/08/25 03:41:55;;;;;;;2.30;1.55;;;21.20;84.10;;;21.71;79.74;101010.94;5145850;28;20047;-79
2022/08/25 03:44:28;;;;;;;2.90;1.98;;;21.10;84.50;;;21.65;79.98;101011.91;5113281;28;20051;-79
2022/08/25 03:47:00;;;;;;;2.58;1.70;;;21.10;84.90;;;21.60;80.42;101015.47;5129298;28;20066;-79
2022/08/25 03:49:33;;;;;;;2.90;2.00;;;21.00;85.30;;;21.54;80.70;101013.75;5146546;28;20054;-80
2022/08/25 03:52:06;;;;;;;2.38;1.88;;;21.00;85.70;;;21.50;81.00;101013.75;5129284;28;20113;-80
2022/08/25 03:54:38;;;;;;;2.97;1.80;;;21.00;86.00;;;21.44;81.26;101016.44;5129759;28;20050;-79
2022/08/25 03:57:13;;;;;;;3.00;2.22;;;20.90;86.30;;;21.37;81.51;101011.19;5129120;28;20523;-78
2022/08/25 03:59:47;;;;;;;2.67;1.85;;;20.80;86.60;;;21.32;81.96;101006.78;5129022;28;20450;-79
2022/08/25 04:02:21;;;;;;;2.05;1.85;;;20.80;87.10;;;21.26;82.20;100997.09;5113613;28;20535;-80
2022/08/25 04:04:53;;;;;;;2.67;2.00;;;20.70;87.40;;;21.23;82.50;100991.81;5113841;28;20055;-79
2022/08/25 04:07:26;;;;;;;2.80;2.03;;;20.60;87.80;;;21.21;82.95;100998.88;5112919;28;20058;-80
2022/08/25 04:09:59;;;;;;;3.03;2.00;;;20.70;88.30;;;21.20;83.11;100989.19;5128935;28;20057;-79
2022/08/25 04:12:33;;;;;;;2.65;2.22;;;20.60;88.50;;;21.18;83.22;100990.94;5144805;28;20137;-79
2022/08/25 04:15:08;;;;;;;2.60;1.77;;;20.60;88.90;;;21.17;83.61;100991.84;5127393;28;20129;-80
2022/08/25 04:17:41;;;;;;;3.17;2.15;;;20.60;89.20;;;21.15;83.77;100993.63;5142871;28;20046;-81
2022/08/25 04:20:14;;;;;;;4.28;2.58;;;20.60;89.40;;;21.13;84.06;100987.47;5142483;28;20418;-79
2022/08/25 04:22:50;;;;;;;3.83;2.10;;;20.60;89.90;;;21.13;84.43;100988.34;5096416;28;20047;-80
2022/08/25 04:25:22;;;;;;;2.53;2.00;;;20.60;90.10;;;21.24;89.16;100995.34;5143156;28;20122;-78
2022/08/25 04:27:57;;;;;;;3.45;2.10;;;20.70;92.20;;;21.57;89.21;101003.09;5128491;28;20043;-77
2022/08/25 04:30:30;;;;;;;4.97;2.55;;;21.00;92.10;;;21.88;85.91;100993.13;5111927;28;20073;-76
2022/08/25 04:33:03;;;;;;;5.68;2.55;;;21.40;91.10;;;22.10;83.44;100998.28;5127566;28;20133;-76
2022/08/25 04:35:36;;;;;;;3.97;2.25;;;21.60;90.10;;;22.24;81.62;101001.69;5144287;28;20055;-76
2022/08/25 04:38:09;;;;;;;2.78;2.13;;;21.80;88.70;;;22.33;80.42;101006.03;5128160;28;20046;-76
2022/08/25 04:40:42;;;;;;;3.00;2.25;;;21.90;87.60;;;22.36;80.06;101003.31;5143407;28;20047;-77
2022/08/25 04:43:17;;;;;;;6.50;2.33;;;22.00;87.20;;;22.31;78.78;100998.09;5126416;28;20053;-81
2022/08/25 04:45:51;;;;;;;3.65;2.30;;;21.90;86.00;;;22.18;79.21;101001.75;5127102;28;20050;-79
2022/08/25 04:48:26;;;;;;;2.67;2.28;;;21.80;86.20;;;21.99;80.36;101001.00;5145146;28;20051;-79
2022/08/25 04:51:05;;;;;;;3.00;2.28;;;21.60;87.20;;;21.81;81.18;101001.16;5145902;28;20139;-79
2022/08/25 04:53:39;;;;;;;2.55;1.95;;;21.40;88.00;;;21.67;82.18;100995.97;5144965;28;20499;-78
2022/08/25 04:56:15;;;;;;;3.03;2.20;;;21.20;88.90;;;21.57;83.21;101002.22;5144151;28;20053;-79
2022/08/25 04:58:49;;;;;;;4.85;2.20;;;21.10;89.80;;;21.48;83.97;100997.00;5144045;28;20073;-79
2022/08/25 05:01:26;;;;;;;;;;;21.00;90.30;;;21.41;84.92;101001.44;5112604;28;20095;-79
2022/08/25 05:04:03;;;;;;;3.03;2.17;;;20.90;90.70;;;21.36;85.19;100990.88;5111950;28;19926;-79
2022/08/25 05:06:36;;;;;;;2.95;2.58;;;20.80;90.90;;;21.32;85.76;100997.09;5127578;28;20396;-79
2022/08/25 05:09:09;;;;;;;3.75;2.42;;;20.80;91.20;;;21.30;86.10;100995.34;5145127;28;20121;-78
2022/08/25 05:11:41;;;;;;;2.92;2.42;;;20.70;91.40;;;21.29;86.53;100994.44;5145134;28;20422;-79
2022/08/25 05:14:20;;;;;;;3.22;2.08;;;20.70;91.60;;;21.31;86.94;100999.75;5127400;28;20455;-78
2022/08/25 05:16:54;;;;;;;2.80;2.00;;;20.70;91.90;;;21.31;86.61;101000.63;5128410;28;20073;-78
2022/08/25 05:19:26;;;;;;;2.60;2.03;;;20.70;91.90;;;21.35;86.36;100999.72;5143600;28;20088;-79
2022/08/25 05:22:00;;;;;;;4.05;2.17;;;20.70;91.80;;;21.37;85.99;100994.41;5127429;28;20047;-78
2022/08/25 05:24:32;;;;;;;3.63;2.20;;;20.80;91.80;;;21.38;85.21;101002.34;5144591;28;20046;-79
2022/08/25 05:27:06;;;;;;;3.13;2.03;;;20.80;91.60;;;21.43;84.89;100990.84;5111345;28;20051;-79
2022/08/25 05:29:41;;;;;;;3.00;2.03;;;20.80;91.40;;;21.44;84.80;100985.50;5127407;28;20043;-80
2022/08/25 05:32:13;;;;;;;3.28;2.60;;;20.90;91.40;;;21.50;85.13;100990.78;5111764;28;20090;-79
2022/08/25 05:34:46;;;;;;;3.35;2.47;;;20.90;91.80;;;21.62;86.58;100989.81;5127282;28;20057;-79
2022/08/25 05:37:20;;;;;;;3.75;2.42;;;21.00;92.10;;;21.87;86.93;100980.75;5144420;28;20043;-79
2022/08/25 05:39:53;;;;;;;5.07;3.33;;;21.20;92.40;;;22.17;85.79;100990.25;5111339;28;20141;-79
2022/08/25 05:42:27;;;;;;;4.93;2.72;;;21.50;92.10;;;22.50;84.68;100979.31;5126469;28;20051;-79
2022/08/25 05:45:01;;;;;;;4.18;2.72;;;21.80;91.70;;;22.79;82.92;100978.94;5144513;28;20046;-80
2022/08/25 05:47:34;;;;;;;4.90;3.00;;;22.00;91.20;;;23.05;81.11;100975.97;5095451;28;20438;-79
2022/08/25 05:50:10;;;;;;;5.70;3.03;;;22.30;90.50;;;23.32;78.90;100970.25;5144444;28;20061;-79
2022/08/25 05:52:43;;;;;;;3.95;2.65;;;22.60;89.40;;;23.66;78.45;100967.09;5126973;28;20078;-80
2022/08/25 05:55:16;;;;;;;3.72;2.72;;;22.80;89.30;;;23.97;78.04;100967.47;5126840;28;20050;-79
2022/08/25 05:57:50;;;;;;;4.70;2.70;;;23.10;88.10;;;24.25;76.75;100974.03;5110802;28;20051;-79
2022/08/25 06:00:24;;;;;;;4.55;2.97;;;23.40;87.10;;;24.51;76.00;100970.91;5144153;28;20129;-79
2022/08/25 06:02:56;;;;;;;4.00;2.70;;;23.70;86.10;;;24.75;75.38;100971.34;5126731;28;20050;-79
2022/08/25 06:05:31;;;;;;;4.75;2.60;;;23.90;85.50;;;25.03;74.98;100967.16;5111524;28;20047;-79
2022/08/25 06:08:04;;;;;;;6.40;2.75;;;24.20;85.10;;;25.32;74.02;100971.00;5126630;28;20133;-80
2022/08/25 06:10:39;;;;;;;3.20;2.65;;;24.50;84.20;;;25.63;72.20;100968.47;5143804;28;20057;-79
2022/08/25 06:13:11;;;;;;;4.55;2.70;;;24.70;82.40;;;25.96;71.53;100966.78;5143824;28;20057;-79
2022/08/25 06:15:46;;;;;;;4.68;2.67;;;25.00;81.40;;;26.21;70.33;100977.66;5110639;28;20060;-78
2022/08/25 06:18:19;;;;;;;5.18;3.20;;;25.30;80.40;;;26.45;68.57;100981.50;5110618;28;20070;-79
2022/08/25 06:20:51;;;;;;;5.85;2.75;;;25.50;78.60;;;26.70;67.61;100977.22;5126758;28;20058;-80
2022/08/25 06:23:24;;;;;;;4.13;2.70;;;25.70;78.10;;;27.01;66.19;100976.31;5142687;28;20442;-79
2022/08/25 06:25:58;;;;;;;3.38;2.63;;;26.00;76.00;;;27.31;66.20;100979.88;5110633;28;20630;-79
2022/08/25 06:28:32;;;;;;;9.27;2.85;;;26.30;75.70;;;27.41;65.19;100985.81;5143676;28;20050;-80
2022/08/25 06:31:07;;;;;;;4.88;3.00;;;26.40;74.30;;;27.57;64.88;100984.38;5111566;28;20125;-80
2022/08/25 06:33:41;;;;;;;5.90;2.58;;;26.60;73.80;;;27.64;64.32;100988.59;5143531;28;20134;-80
2022/08/25 06:36:14;;;;;;;;;;;26.70;72.90;;;27.76;64.16;100993.59;5144308;28;20047;-80
2022/08/25 06:38:47;;;;;;;4.63;2.58;;;26.90;72.60;;;27.94;63.66;100993.91;5110822;28;19926;-80
2022/08/25 06:41:20;;;;;;;4.22;2.30;;;27.00;72.10;;;28.11;63.71;100991.53;5126532;28;20553;-80
2022/08/25 06:44:01;;;;;;;4.28;2.53;;;27.20;71.90;;;28.41;62.49;100992.28;5126460;28;20054;-79
2022/08/25 06:46:35;;;;;;;4.95;2.42;;;27.40;70.80;;;28.45;62.18;100999.28;5143954;28;20051;-74
2022/08/25 06:49:08;;;;;;;5.03;2.45;;;27.50;70.10;;;28.46;62.50;100986.75;5143811;28;20039;-79
2022/08/25 06:51:42;;;;;;;4.28;2.70;;;27.50;70.00;;;28.46;61.87;100995.66;5110722;28;20066;-80
2022/08/25 06:54:17;;;;;;;5.68;2.83;;;27.60;69.70;;;28.29;62.30;101008.75;5126913;28;20053;-80
2022/08/25 06:56:52;;;;;;;4.57;3.20;;;27.60;69.50;;;28.18;62.54;101005.59;5130451;28;20470;-79
2022/08/25 06:59:27;;;;;;;7.00;2.90;;;27.40;69.60;;;28.15;62.83;101011.94;5130171;28;20054;-79
2022/08/25 07:02:01;;;;;;;5.82;2.78;;;27.40;69.70;;;28.07;63.30;101003.28;5130228;28;20554;-80
2022/08/25 07:04:36;;;;;;;5.22;2.92;;;27.30;69.70;;;28.11;63.45;101011.19;5114045;28;20047;-80
2022/08/25 07:07:09;;;;;;;5.63;3.08;;;27.40;70.00;;;28.19;63.05;101002.00;5129965;28;20047;-80
2022/08/25 07:09:42;;;;;;;5.75;3.20;;;27.40;69.70;;;28.17;63.02;101002.06;5114022;28;20062;-79
2022/08/25 07:12:18;;;;;;;5.78;2.90;;;27.40;69.70;;;28.10;63.21;100989.75;5129951;28;20047;-78
2022/08/25 07:14:51;;;;;;;4.75;3.28;;;27.40;69.70;;;28.23;63.44;100990.22;5129698;28;20410;-78
2022/08/25 07:17:26;;;;;;;5.00;2.85;;;27.50;70.00;;;28.43;63.11;100990.44;5146931;28;20058;-79
2022/08/25 07:19:59;;;;;;;6.93;2.80;;;27.60;69.80;;;28.49;62.77;100982.13;5113567;28;20058;-79
2022/08/25 07:22:31;;;;;;;5.13;3.05;;;27.60;69.20;;;28.62;63.06;100982.56;5129784;28;20137;-78
2022/08/25 07:25:09;;;;;;;5.97;3.05;;;27.80;69.50;;;28.97;62.55;100988.47;5147131;28;20047;-79
2022/08/25 07:27:42;;;;;;;4.00;2.85;;;28.10;69.40;;;29.25;61.14;100989.13;5114392;28;20515;-79
2022/08/25 07:30:17;;;;;;;4.80;3.00;;;28.30;68.30;;;29.42;60.99;100994.72;5129619;28;20065;-79
2022/08/25 07:32:53;;;;;;;4.25;3.05;;;28.50;67.50;;;29.49;60.30;100997.16;5129463;28;20051;-79
2022/08/25 07:35:26;;;;;;;4.43;2.78;;;28.60;67.00;;;29.56;60.36;100991.50;5146858;28;20046;-79
2022/08/25 07:38:00;;;;;;;6.88;3.17;;;28.70;67.10;;;29.72;60.32;100997.09;5113380;28;20050;-79
2022/08/25 07:40:35;;;;;;;4.88;3.10;;;28.80;66.90;;;29.74;59.82;100995.25;5097887;28;20062;-78
2022/08/25 07:43:10;;;;;;;5.45;3.10;;;28.90;66.60;;;29.80;59.69;100992.28;5129219;28;20429;-79
2022/08/25 07:45:44;;;;;;;5.45;3.00;;;29.00;66.20;;;29.91;59.35;100992.69;5129212;28;20082;-79
2022/08/25 07:48:20;;;;;;;4.85;3.05;;;29.00;66.00;;;30.03;59.60;100987.75;5113621;28;20054;-79
2022/08/25 07:50:53;;;;;;;5.32;2.83;;;29.10;65.90;;;30.25;59.18;100996.66;5129133;28;20051;-78
2022/08/25 07:53:26;;;;;;;6.93;3.42;;;29.30;65.60;;;30.41;58.66;100997.72;5146507;28;20600;-79
2022/08/25 07:55:58;;;;;;;4.63;3.10;;;29.40;65.30;;;30.73;58.44;101000.81;5129997;28;20438;-78
2022/08/25 07:58:31;;;;;;;5.45;2.97;;;29.60;65.10;;;31.02;57.43;100989.56;5129765;28;20058;-79
2022/08/25 08:01:03;;;;;;;5.32;3.00;;;29.90;64.30;;;31.31;56.55;100990.91;5146258;28;20050;-79
2022/08/25 08:03:37;;;;;;;6.20;3.20;;;30.10;63.60;;;31.52;56.08;100993.50;5146296;28;20133;-79
2022/08/25 08:06:11;;;;;;;;;;;30.30;62.90;;;31.75;55.88;100989.63;5128940;28;20039;-79
2022/08/25 08:08:48;;;;;;;4.68;3.10;;;30.50;62.90;;;32.09;55.78;100989.72;5144893;28;19929;-79
2022/08/25 08:11:26;;;;;;;4.18;3.10;;;30.70;63.40;;;32.39;54.68;100991.78;5128821;28;20148;-78
2022/08/25 08:14:00;;;;;;;4.15;3.00;;;31.00;61.90;;;32.61;54.45;100988.81;5129010;28;20097;-79
2022/08/25 08:16:33;;;;;;;4.35;2.83;;;31.20;61.60;;;32.96;53.83;100991.44;5128509;28;20047;-80
2022/08/25 08:19:08;;;;;;;5.85;2.88;;;31.40;61.20;;;33.28;52.93;100993.22;5128925;28;20054;-78
2022/08/25 08:21:41;;;;;;;4.20;2.97;;;31.60;60.60;;;33.64;52.48;100990.22;5112826;28;20046;-80
2022/08/25 08:24:14;;;;;;;4.20;3.03;;;31.70;60.20;;;34.28;51.33;100996.38;5144894;28;20447;-79
2022/08/25 08:26:47;;;;;;;4.07;2.70;;;32.00;59.70;;;34.86;50.67;100978.34;5128568;28;20120;-79
2022/08/25 08:29:21;;;;;;;4.63;2.88;;;32.30;59.90;;;35.44;49.91;100977.34;5112743;28;20043;-78
2022/08/25 08:31:53;;;;;;;4.38;2.55;;;32.70;58.60;;;36.11;48.86;100968.22;5112829;28;20057;-80
2022/08/25 08:34:28;;;;;;;3.83;2.70;;;33.10;58.00;;;37.08;46.93;100962.22;5144404;28;20054;-79
2022/08/25 08:37:02;;;;;;;4.57;2.88;;;33.60;56.90;;;38.08;45.50;100966.44;5145606;28;20038;-79
2022/08/25 08:39:35;;;;;;;7.25;2.92;;;34.20;55.90;;;39.09;44.54;100959.25;5145737;28;20058;-79
2022/08/25 08:42:35;;;;;;;3.80;2.70;;;35.00;54.70;;;39.81;43.72;100963.28;5128497;28;20050;-79
2022/08/25 08:45:25;;;;;;;5.63;2.67;;;35.80;53.50;;;40.44;42.49;100961.44;5145714;28;20486;-80
2022/08/25 08:48:17;;;;;;;5.05;2.67;;;36.60;52.20;;;40.83;41.53;100969.84;5128012;28;20051;-79
2022/08/25 08:51:09;;;;;;;5.53;2.50;;;37.10;50.80;;;41.07;41.37;100962.16;5114044;28;20051;-80
2022/08/25 08:53:46;;;;;;;5.72;3.00;;;37.40;50.50;;;41.38;40.97;100960.25;5128228;28;20414;-79
2022/08/25 08:56:24;;;;;;;4.35;2.40;;;37.70;49.70;;;41.46;40.68;100951.31;5128642;28;20043;-80
2022/08/25 08:59:00;;;;;;;3.80;2.58;;;38.00;49.10;;;41.22;40.88;100946.25;5144204;28;20143;-79
2022/08/25 09:01:43;;;;;;;3.28;2.42;;;38.00;49.00;;;41.29;40.97;100952.88;5145150;28;20070;-80
2022/08/25 09:04:21;;;;;;;4.70;2.33;;;38.00;49.20;;;41.62;40.50;100951.63;5127937;28;20149;-79
2022/08/25 09:06:57;;;;;;;3.67;2.88;;;38.20;49.40;;;41.78;40.65;100945.59;5127801;28;20051;-79
2022/08/25 09:09:33;;;;;;;5.38;2.75;;;38.40;48.40;;;41.72;40.77;100941.53;5145147;28;20049;-79
2022/08/25 09:12:13;;;;;;;3.53;2.40;;;38.50;48.50;;;41.43;40.53;100940.69;5145436;28;20502;-79
2022/08/25 09:15:02;;;;;;;3.92;2.60;;;38.40;48.10;;;40.72;41.23;100939.88;5128291;28;20128;-79
2022/08/25 09:17:57;;;;;;;3.78;2.17;;;38.20;48.30;;;40.05;42.11;100931.19;5126832;28;20546;-80
2022/08/25 09:20:47;;;;;;;3.85;2.53;;;37.90;48.70;;;39.61;43.14;100926.81;5112013;28;20055;-79
2022/08/25 09:23:39;;;;;;;3.13;2.20;;;37.70;49.20;;;39.06;43.91;100921.38;5112493;28;20050;-79
2022/08/25 09:26:31;;;;;;;3.80;2.85;;;37.40;49.60;;;38.11;44.39;100922.69;5128360;28;20459;-79
2022/08/25 09:29:10;;;;;;;5.50;2.80;;;36.80;49.60;;;37.37;45.77;100916.63;5127585;28;20050;-79
2022/08/25 09:31:45;;;;;;;6.40;2.67;;;36.30;50.50;;;36.97;46.01;100915.09;5127409;28;20046;-79
2022/08/25 09:34:22;;;;;;;4.43;2.40;;;35.90;50.70;;;36.49;45.89;100890.53;5111666;28;20157;-79
2022/08/25 09:36:54;;;;;;;4.93;2.55;;;35.50;50.50;;;36.13;46.74;100892.16;5144271;28;20043;-79
2022/08/25 09:39:28;;;;;;;3.75;2.35;;;35.10;51.10;;;36.12;46.73;100887.69;5111243;28;20073;-79
2022/08/25 09:42:03;;;;;;;3.70;2.42;;;35.00;52.30;;;36.22;46.91;100891.50;5095668;28;20050;-79
2022/08/25 09:44:42;;;;;;;4.43;2.45;;;35.00;51.80;;;36.24;47.45;100889.53;5144308;28;20065;-79
2022/08/25 09:47:22;;;;;;;4.43;2.78;;;35.00;52.20;;;36.03;47.07;100888.34;5126934;28;20050;-79
2022/08/25 09:49:59;;;;;;;4.40;2.63;;;34.90;51.80;;;35.83;47.09;100882.44;5127043;28;20051;-79
2022/08/25 09:52:36;;;;;;;4.60;2.70;;;34.70;51.80;;;35.79;46.97;100880.03;5127061;28;20058;-79
2022/08/25 09:55:40;;;;;;;4.57;2.60;;;34.70;52.00;;;35.85;47.17;100875.06;5126643;28;20050;-79
2022/08/25 09:58:20;;;;;;;4.90;2.63;;;34.70;52.20;;;35.91;47.32;100875.66;5127160;28;20055;-79
2022/08/25 10:01:17;;;;;;;4.68;2.67;;;34.70;52.10;;;35.80;47.17;100879.97;5126907;28;20053;-79
2022/08/25 10:04:06;;;;;;;3.85;2.90;;;34.70;52.10;;;35.83;47.09;100871.59;5126943;28;20043;-79
2022/08/25 10:06:46;;;;;;;3.53;2.70;;;34.70;52.10;;;35.85;47.06;100864.22;5144114;28;20465;-80
2022/08/25 10:09:31;;;;;;;5.93;2.97;;;34.70;52.10;;;35.79;47.22;100870.06;5127069;28;20052;-78
2022/08/25 10:12:19;;;;;;;4.35;2.90;;;34.60;52.00;;;35.66;47.21;100863.75;5126711;28;20039;-79
2022/08/25 10:14:52;;;;;;;4.00;2.92;;;34.50;52.10;;;35.76;47.64;100855.88;5126504;28;20058;-78
2022/08/25 10:17:30;;;;;;;3.78;2.58;;;34.50;52.30;;;35.98;47.91;100861.53;5126438;28;20101;-79
2022/08/25 10:20:18;;;;;;;4.07;2.72;;;34.70;52.60;;;36.20;46.51;100852.75;5126755;28;20113;-78
2022/08/25 10:22:54;;;;;;;4.00;2.40;;;34.80;51.50;;;36.23;46.08;100857.09;5143501;28;20138;-79
2022/08/25 10:25:30;;;;;;;3.65;2.60;;;34.90;51.20;;;36.17;46.30;100847.53;5111431;28;20054;-79
2022/08/25 10:28:13;;;;;;;4.43;2.83;;;34.90;51.40;;;36.18;46.39;100857.41;5142674;28;20043;-79
2022/08/25 10:30:57;;;;;;;3.30;2.50;;;34.90;51.40;;;36.35;46.10;100839.91;5131143;28;20057;-79
2022/08/25 10:33:41;;;;;;;5.05;2.72;;;35.00;51.40;;;36.51;45.73;100848.69;5130770;28;20055;-80
2022/08/25 10:36:20;;;;;;;5.03;3.10;;;35.10;51.00;;;36.30;45.50;100848.38;5100134;28;20422;-80
2022/08/25 10:39:00;;;;;;;3.45;2.70;;;35.00;50.30;;;36.16;45.76;100840.38;5099449;28;20120;-80
2022/08/25 10:41:49;;;;;;;4.75;2.75;;;34.90;50.90;;;36.33;46.96;100829.19;5130533;28;20058;-80
2022/08/25 10:48:14;;;;;;;3.75;2.38;;;35.10;51.40;;;36.73;45.27;100831.72;5130182;28;20051;-79
2022/08/25 10:50:54;;;;;;;5.15;2.80;;;35.30;50.70;;;36.82;45.22;100832.88;5135283;28;20149;-78
2022/08/25 10:53:38;;;;;;;4.20;2.85;;;35.40;50.40;;;36.51;44.55;100820.69;5114596;28;20061;-79
2022/08/25 10:56:17;;;;;;;3.97;2.40;;;35.20;49.80;;;36.35;44.94;100812.78;5130144;28;20447;-80